createdAt,value
2022-11-02T06:15:45.310Z,11.04
2022-11-02T06:25:45.278Z,10.92
2022-11-02T06:35:45.372Z,11.01
2022-11-02T06:45:45.476Z,11.14
2022-11-02T06:55:45.432Z,11.31
2022-11-02T07:05:45.462Z,11.46
2022-11-02T07:15:45.511Z,11.53
2022-11-02T07:25:45.411Z,11.45
2022-11-02T07:35:45.451Z,12.00
2022-11-02T07:45:45.382Z,11.90
2022-11-02T07:55:45.672Z,12.40
2022-11-02T08:05:45.528Z,12.25
2022-11-02T08:15:45.635Z,12.36
2022-11-02T08:25:45.496Z,12.46
2022-11-02T08:35:45.805Z,12.59
2022-11-02T08:46:14.224Z,12.57
2022-11-02T08:55:45.683Z,12.64
2022-11-02T09:05:45.672Z,12.71
2022-11-02T09:15:45.534Z,13.35
2022-11-02T09:25:45.687Z,13.17
2022-11-02T09:35:45.723Z,13.09
2022-11-02T09:45:45.584Z,13.17
2022-11-02T09:55:45.663Z,13.29
2022-11-02T10:05:45.703Z,13.42
2022-11-02T10:15:45.753Z,13.43
2022-11-02T10:25:45.612Z,13.34
2022-11-02T10:36:12.028Z,13.35
2022-11-02T10:45:45.793Z,13.31
2022-11-02T10:55:45.733Z,13.62
2022-11-02T11:05:45.903Z,13.66
2022-11-02T11:25:45.692Z,13.43
2022-11-02T11:35:45.743Z,13.43
2022-11-02T11:45:45.794Z,13.42
2022-11-02T11:55:45.752Z,13.75
2022-11-02T12:05:45.892Z,13.44
2022-11-02T12:15:45.769Z,13.95
2022-11-02T12:25:45.657Z,13.76
2022-11-02T12:35:45.769Z,13.51
2022-11-02T12:45:45.807Z,13.51
2022-11-02T12:55:45.761Z,13.87
2022-11-02T13:05:45.755Z,14.02
2022-11-02T13:15:45.798Z,13.81
2022-11-02T13:25:45.861Z,13.62
2022-11-02T13:35:45.763Z,13.22
2022-11-02T13:45:45.882Z,13.58
2022-11-02T13:55:46.170Z,13.35
2022-11-02T14:05:45.812Z,13.10
2022-11-02T14:15:45.768Z,13.35
2022-11-02T14:25:46.015Z,12.93
2022-11-02T14:35:46.052Z,13.23
2022-11-02T14:45:46.192Z,13.33
2022-11-02T14:55:46.049Z,13.15
2022-11-02T15:05:46.061Z,13.05
2022-11-02T15:15:46.140Z,12.96
2022-11-02T15:25:46.167Z,12.74
2022-11-02T15:35:46.155Z,12.39
2022-11-02T15:45:50.502Z,12.01
2022-11-02T15:55:46.111Z,11.54
2022-11-02T16:05:46.093Z,11.26
2022-11-02T16:15:46.190Z,11.30
2022-11-02T16:25:46.155Z,10.91
2022-11-02T16:35:46.017Z,10.52
2022-11-02T16:45:46.152Z,8.73
2022-11-02T16:55:46.172Z,7.52
2022-11-02T17:05:46.188Z,8.53
2022-11-02T17:15:46.137Z,9.13
2022-11-02T17:25:46.257Z,9.02
2022-11-02T17:35:46.192Z,8.27
2022-11-02T17:45:46.252Z,7.74
2022-11-02T17:55:46.299Z,7.36
2022-11-02T18:05:49.518Z,7.58
2022-11-02T18:15:46.371Z,7.97
2022-11-02T18:25:46.171Z,8.55
2022-11-02T18:35:46.337Z,8.02
2022-11-02T18:45:46.281Z,6.46
2022-11-02T18:55:46.210Z,6.65
2022-11-02T19:05:46.310Z,7.31
2022-11-02T19:15:46.451Z,7.49
